sensor_id;sensor_type;location;lat;lon;timestamp;temperature;humidity
298;DHT22;133;49.626;9.680;2022-11-20T00:01:39;3.50;95.40
298;DHT22;133;49.626;9.680;2022-11-20T00:04:05;3.50;95.20
298;DHT22;133;49.626;9.680;2022-11-20T00:06:31;3.50;95.00
298;DHT22;133;49.626;9.680;2022-11-20T00:08:58;3.50;95.20
298;DHT22;133;49.626;9.680;2022-11-20T00:11:27;3.50;95.70
298;DHT22;133;49.626;9.680;2022-11-20T00:13:59;3.50;95.70
298;DHT22;133;49.626;9.680;2022-11-20T00:16:27;3.50;95.70
298;DHT22;133;49.626;9.680;2022-11-20T00:18:53;3.50;95.70
298;DHT22;133;49.626;9.680;2022-11-20T00:21:27;3.50;95.60
298;DHT22;133;49.626;9.680;2022-11-20T00:23:55;3.50;95.60
298;DHT22;133;49.626;9.680;2022-11-20T00:26:21;3.60;95.70
298;DHT22;133;49.626;9.680;2022-11-20T00:28:57;3.60;95.60
298;DHT22;133;49.626;9.680;2022-11-20T00:31:23;3.50;95.20
298;DHT22;133;49.626;9.680;2022-11-20T00:33:49;3.40;95.50
298;DHT22;133;49.626;9.680;2022-11-20T00:36:17;3.30;95.70
298;DHT22;133;49.626;9.680;2022-11-20T00:38:43;3.30;95.70
298;DHT22;133;49.626;9.680;2022-11-20T00:41:11;3.30;96.00
298;DHT22;133;49.626;9.680;2022-11-20T00:43:38;3.30;95.90
298;DHT22;133;49.626;9.680;2022-11-20T00:46:05;3.10;95.90
298;DHT22;133;49.626;9.680;2022-11-20T00:48:31;3.10;95.90
298;DHT22;133;49.626;9.680;2022-11-20T00:50:57;3.10;96.00
298;DHT22;133;49.626;9.680;2022-11-20T00:53:23;3.10;96.20
298;DHT22;133;49.626;9.680;2022-11-20T00:55:57;3.20;96.40
298;DHT22;133;49.626;9.680;2022-11-20T00:58:24;3.20;96.40
298;DHT22;133;49.626;9.680;2022-11-20T01:00:50;3.20;96.40
298;DHT22;133;49.626;9.680;2022-11-20T01:03:19;3.20;96.80
298;DHT22;133;49.626;9.680;2022-11-20T01:05:45;3.20;96.70
298;DHT22;133;49.626;9.680;2022-11-20T01:08:10;3.30;97.00
298;DHT22;133;49.626;9.680;2022-11-20T01:10:36;3.30;96.90
298;DHT22;133;49.626;9.680;2022-11-20T01:13:02;3.30;96.70
298;DHT22;133;49.626;9.680;2022-11-20T01:15:46;3.30;96.70
298;DHT22;133;49.626;9.680;2022-11-20T01:18:11;3.40;96.70
298;DHT22;133;49.626;9.680;2022-11-20T01:20:37;3.30;96.40
298;DHT22;133;49.626;9.680;2022-11-20T01:23:03;3.20;96.70
298;DHT22;133;49.626;9.680;2022-11-20T01:25:29;3.30;96.70
298;DHT22;133;49.626;9.680;2022-11-20T01:27:55;3.30;96.80
298;DHT22;133;49.626;9.680;2022-11-20T01:30:21;3.30;96.70
298;DHT22;133;49.626;9.680;2022-11-20T01:32:46;3.30;97.00
298;DHT22;133;49.626;9.680;2022-11-20T01:35:12;3.30;96.90
298;DHT22;133;49.626;9.680;2022-11-20T01:37:37;3.30;96.80
298;DHT22;133;49.626;9.680;2022-11-20T01:40:03;3.30;96.80
298;DHT22;133;49.626;9.680;2022-11-20T01:42:32;3.30;96.80
298;DHT22;133;49.626;9.680;2022-11-20T01:48:36;3.30;96.60
298;DHT22;133;49.626;9.680;2022-11-20T01:51:04;3.20;96.70
298;DHT22;133;49.626;9.680;2022-11-20T01:53:34;3.20;96.90
298;DHT22;133;49.626;9.680;2022-11-20T01:56:03;3.20;96.70
298;DHT22;133;49.626;9.680;2022-11-20T01:58:33;3.20;96.90
298;DHT22;133;49.626;9.680;2022-11-20T02:01:01;3.20;96.90
298;DHT22;133;49.626;9.680;2022-11-20T02:03:27;3.10;96.90
298;DHT22;133;49.626;9.680;2022-11-20T02:08:40;3.20;97.10
298;DHT22;133;49.626;9.680;2022-11-20T02:11:06;3.20;97.20
298;DHT22;133;49.626;9.680;2022-11-20T02:13:33;3.30;97.00
298;DHT22;133;49.626;9.680;2022-11-20T02:16:11;3.30;96.90
298;DHT22;133;49.626;9.680;2022-11-20T02:18:37;3.20;96.90
298;DHT22;133;49.626;9.680;2022-11-20T02:21:11;3.20;96.70
298;DHT22;133;49.626;9.680;2022-11-20T02:26:22;3.20;96.80
298;DHT22;133;49.626;9.680;2022-11-20T02:28:48;3.10;96.70
298;DHT22;133;49.626;9.680;2022-11-20T02:31:14;3.10;96.90
298;DHT22;133;49.626;9.680;2022-11-20T02:33:40;3.20;96.60
298;DHT22;133;49.626;9.680;2022-11-20T02:36:08;3.10;97.00
298;DHT22;133;49.626;9.680;2022-11-20T02:38:36;3.10;96.70
298;DHT22;133;49.626;9.680;2022-11-20T02:41:02;3.10;96.40
298;DHT22;133;49.626;9.680;2022-11-20T02:43:28;3.10;96.80
298;DHT22;133;49.626;9.680;2022-11-20T02:45:54;3.10;96.80
298;DHT22;133;49.626;9.680;2022-11-20T02:48:19;3.10;96.70
298;DHT22;133;49.626;9.680;2022-11-20T02:50:45;3.10;96.90
298;DHT22;133;49.626;9.680;2022-11-20T02:53:10;3.10;96.80
298;DHT22;133;49.626;9.680;2022-11-20T02:55:36;3.10;97.00
298;DHT22;133;49.626;9.680;2022-11-20T02:58:02;3.10;97.00
298;DHT22;133;49.626;9.680;2022-11-20T03:00:30;3.20;97.00
298;DHT22;133;49.626;9.680;2022-11-20T03:02:57;3.10;96.90
298;DHT22;133;49.626;9.680;2022-11-20T03:05:23;3.10;96.90
298;DHT22;133;49.626;9.680;2022-11-20T03:07:48;3.10;97.20
298;DHT22;133;49.626;9.680;2022-11-20T03:10:14;3.10;97.20
298;DHT22;133;49.626;9.680;2022-11-20T03:12:39;3.10;97.20
298;DHT22;133;49.626;9.680;2022-11-20T03:15:05;3.10;97.20
298;DHT22;133;49.626;9.680;2022-11-20T03:17:31;3.10;97.40
298;DHT22;133;49.626;9.680;2022-11-20T03:19:57;3.10;97.40
298;DHT22;133;49.626;9.680;2022-11-20T03:22:22;3.20;97.40
298;DHT22;133;49.626;9.680;2022-11-20T03:24:48;3.10;97.20
298;DHT22;133;49.626;9.680;2022-11-20T03:27:13;3.10;97.40
298;DHT22;133;49.626;9.680;2022-11-20T03:29:39;3.10;97.40
298;DHT22;133;49.626;9.680;2022-11-20T03:32:05;3.10;97.50
298;DHT22;133;49.626;9.680;2022-11-20T03:34:30;3.20;97.50
298;DHT22;133;49.626;9.680;2022-11-20T03:36:56;3.20;97.30
298;DHT22;133;49.626;9.680;2022-11-20T03:39:22;3.20;97.10
298;DHT22;133;49.626;9.680;2022-11-20T03:41:47;3.20;97.20
298;DHT22;133;49.626;9.680;2022-11-20T03:44:13;3.10;97.40
298;DHT22;133;49.626;9.680;2022-11-20T03:46:38;3.10;97.70
298;DHT22;133;49.626;9.680;2022-11-20T03:49:04;3.10;97.70
298;DHT22;133;49.626;9.680;2022-11-20T03:51:32;3.10;97.80
298;DHT22;133;49.626;9.680;2022-11-20T03:54:00;3.10;97.80
298;DHT22;133;49.626;9.680;2022-11-20T03:56:28;3.10;97.90
298;DHT22;133;49.626;9.680;2022-11-20T03:58:54;3.10;98.10
298;DHT22;133;49.626;9.680;2022-11-20T04:01:23;3.20;98.20
298;DHT22;133;49.626;9.680;2022-11-20T04:03:51;3.20;98.10
298;DHT22;133;49.626;9.680;2022-11-20T04:06:27;3.20;98.10
298;DHT22;133;49.626;9.680;2022-11-20T04:08:57;3.10;98.30
298;DHT22;133;49.626;9.680;2022-11-20T04:11:25;3.10;98.30
298;DHT22;133;49.626;9.680;2022-11-20T04:13:56;3.10;98.40
298;DHT22;133;49.626;9.680;2022-11-20T04:16:24;3.10;98.10
298;DHT22;133;49.626;9.680;2022-11-20T04:18:53;3.10;98.20
298;DHT22;133;49.626;9.680;2022-11-20T04:21:20;3.10;98.30
298;DHT22;133;49.626;9.680;2022-11-20T04:23:45;3.10;98.40
298;DHT22;133;49.626;9.680;2022-11-20T04:26:12;3.10;98.60
298;DHT22;133;49.626;9.680;2022-11-20T04:28:38;3.10;98.40
298;DHT22;133;49.626;9.680;2022-11-20T04:31:09;3.10;98.30
298;DHT22;133;49.626;9.680;2022-11-20T04:33:36;3.10;98.30
298;DHT22;133;49.626;9.680;2022-11-20T04:36:05;3.20;98.30
298;DHT22;133;49.626;9.680;2022-11-20T04:38:31;3.20;98.30
298;DHT22;133;49.626;9.680;2022-11-20T04:41:01;3.10;98.20
298;DHT22;133;49.626;9.680;2022-11-20T04:43:27;3.20;98.20
298;DHT22;133;49.626;9.680;2022-11-20T04:45:54;3.20;98.20
298;DHT22;133;49.626;9.680;2022-11-20T04:48:20;3.20;97.80
298;DHT22;133;49.626;9.680;2022-11-20T04:50:46;3.20;98.10
298;DHT22;133;49.626;9.680;2022-11-20T04:53:11;3.20;97.70
298;DHT22;133;49.626;9.680;2022-11-20T04:55:37;3.00;97.70
298;DHT22;133;49.626;9.680;2022-11-20T04:58:02;3.00;98.30
298;DHT22;133;49.626;9.680;2022-11-20T05:00:28;3.10;98.30
298;DHT22;133;49.626;9.680;2022-11-20T05:02:54;3.00;97.70
298;DHT22;133;49.626;9.680;2022-11-20T05:05:19;3.00;98.00
298;DHT22;133;49.626;9.680;2022-11-20T05:07:45;3.10;97.60
298;DHT22;133;49.626;9.680;2022-11-20T05:10:10;3.00;97.20
298;DHT22;133;49.626;9.680;2022-11-20T05:12:36;3.00;97.60
298;DHT22;133;49.626;9.680;2022-11-20T05:15:02;2.90;97.60
298;DHT22;133;49.626;9.680;2022-11-20T05:17:27;2.90;97.80
298;DHT22;133;49.626;9.680;2022-11-20T05:19:53;2.90;98.00
298;DHT22;133;49.626;9.680;2022-11-20T05:22:18;2.90;98.30
298;DHT22;133;49.626;9.680;2022-11-20T05:24:44;2.90;98.30
298;DHT22;133;49.626;9.680;2022-11-20T05:27:10;2.90;98.50
298;DHT22;133;49.626;9.680;2022-11-20T05:29:35;2.90;98.50
298;DHT22;133;49.626;9.680;2022-11-20T05:32:01;3.00;98.70
298;DHT22;133;49.626;9.680;2022-11-20T05:34:26;3.00;98.60
298;DHT22;133;49.626;9.680;2022-11-20T05:36:52;3.10;98.60
298;DHT22;133;49.626;9.680;2022-11-20T05:39:17;3.10;98.50
298;DHT22;133;49.626;9.680;2022-11-20T05:41:43;3.10;98.40
298;DHT22;133;49.626;9.680;2022-11-20T05:44:12;3.20;98.30
298;DHT22;133;49.626;9.680;2022-11-20T05:46:38;3.20;98.30
298;DHT22;133;49.626;9.680;2022-11-20T05:49:04;3.20;98.10
298;DHT22;133;49.626;9.680;2022-11-20T05:51:29;3.30;98.00
298;DHT22;133;49.626;9.680;2022-11-20T05:53:58;3.30;98.00
298;DHT22;133;49.626;9.680;2022-11-20T05:56:24;3.30;97.90
298;DHT22;133;49.626;9.680;2022-11-20T05:58:49;3.30;97.90
298;DHT22;133;49.626;9.680;2022-11-20T06:01:22;3.40;97.90
298;DHT22;133;49.626;9.680;2022-11-20T06:03:48;3.40;97.70
298;DHT22;133;49.626;9.680;2022-11-20T06:06:16;3.40;97.70
298;DHT22;133;49.626;9.680;2022-11-20T06:08:43;3.40;97.70
298;DHT22;133;49.626;9.680;2022-11-20T06:11:10;3.40;97.60
298;DHT22;133;49.626;9.680;2022-11-20T06:13:37;3.40;97.70
298;DHT22;133;49.626;9.680;2022-11-20T06:16:03;3.50;97.80
298;DHT22;133;49.626;9.680;2022-11-20T06:18:29;3.50;97.60
298;DHT22;133;49.626;9.680;2022-11-20T06:21:10;3.50;97.60
298;DHT22;133;49.626;9.680;2022-11-20T06:23:36;3.50;97.50
298;DHT22;133;49.626;9.680;2022-11-20T06:26:07;3.60;97.40
298;DHT22;133;49.626;9.680;2022-11-20T06:28:33;3.60;97.30
298;DHT22;133;49.626;9.680;2022-11-20T06:30:59;3.60;97.40
298;DHT22;133;49.626;9.680;2022-11-20T06:33:25;3.60;97.40
298;DHT22;133;49.626;9.680;2022-11-20T06:35:51;3.60;97.40
298;DHT22;133;49.626;9.680;2022-11-20T06:38:17;3.60;97.20
298;DHT22;133;49.626;9.680;2022-11-20T06:40:43;3.60;97.40
298;DHT22;133;49.626;9.680;2022-11-20T06:43:09;3.60;97.20
298;DHT22;133;49.626;9.680;2022-11-20T06:45:36;3.60;97.20
298;DHT22;133;49.626;9.680;2022-11-20T06:48:01;3.50;97.40
298;DHT22;133;49.626;9.680;2022-11-20T06:50:27;3.60;97.40
298;DHT22;133;49.626;9.680;2022-11-20T06:52:52;3.60;97.40
298;DHT22;133;49.626;9.680;2022-11-20T06:55:18;3.60;97.50
298;DHT22;133;49.626;9.680;2022-11-20T06:57:44;3.60;97.20
298;DHT22;133;49.626;9.680;2022-11-20T07:00:10;3.60;97.50
298;DHT22;133;49.626;9.680;2022-11-20T07:02:36;3.60;97.60
298;DHT22;133;49.626;9.680;2022-11-20T07:05:02;3.60;97.50
298;DHT22;133;49.626;9.680;2022-11-20T07:07:27;3.60;97.50
298;DHT22;133;49.626;9.680;2022-11-20T07:09:53;3.60;97.40
298;DHT22;133;49.626;9.680;2022-11-20T07:12:19;3.60;97.40
298;DHT22;133;49.626;9.680;2022-11-20T07:14:44;3.60;97.40
298;DHT22;133;49.626;9.680;2022-11-20T07:17:10;3.60;97.40
298;DHT22;133;49.626;9.680;2022-11-20T07:19:35;3.60;97.60
298;DHT22;133;49.626;9.680;2022-11-20T07:22:01;3.70;97.60
298;DHT22;133;49.626;9.680;2022-11-20T07:24:26;3.70;97.50
298;DHT22;133;49.626;9.680;2022-11-20T07:26:52;3.70;97.20
298;DHT22;133;49.626;9.680;2022-11-20T07:29:18;3.70;97.30
298;DHT22;133;49.626;9.680;2022-11-20T07:31:43;3.80;97.10
298;DHT22;133;49.626;9.680;2022-11-20T07:34:09;3.80;97.10
298;DHT22;133;49.626;9.680;2022-11-20T07:36:35;3.80;97.10
298;DHT22;133;49.626;9.680;2022-11-20T07:39:00;3.80;97.10
298;DHT22;133;49.626;9.680;2022-11-20T07:41:26;3.80;97.10
298;DHT22;133;49.626;9.680;2022-11-20T07:43:52;3.80;97.30
298;DHT22;133;49.626;9.680;2022-11-20T07:46:18;3.80;97.30
298;DHT22;133;49.626;9.680;2022-11-20T07:48:44;3.90;97.20
298;DHT22;133;49.626;9.680;2022-11-20T07:51:09;3.90;97.10
298;DHT22;133;49.626;9.680;2022-11-20T07:53:35;3.90;97.20
298;DHT22;133;49.626;9.680;2022-11-20T07:56:02;3.80;97.10
298;DHT22;133;49.626;9.680;2022-11-20T07:58:31;3.90;97.40
298;DHT22;133;49.626;9.680;2022-11-20T08:01:05;3.80;97.30
298;DHT22;133;49.626;9.680;2022-11-20T08:03:31;3.90;97.20
298;DHT22;133;49.626;9.680;2022-11-20T08:05:59;3.80;97.10
298;DHT22;133;49.626;9.680;2022-11-20T08:08:26;3.80;96.90
298;DHT22;133;49.626;9.680;2022-11-20T08:10:51;3.70;97.30
298;DHT22;133;49.626;9.680;2022-11-20T08:13:17;3.70;97.50
298;DHT22;133;49.626;9.680;2022-11-20T08:16:01;3.70;97.30
298;DHT22;133;49.626;9.680;2022-11-20T08:18:27;3.70;97.70
298;DHT22;133;49.626;9.680;2022-11-20T08:20:53;3.70;97.50
298;DHT22;133;49.626;9.680;2022-11-20T08:23:18;3.70;97.50
298;DHT22;133;49.626;9.680;2022-11-20T08:25:49;3.70;98.00
298;DHT22;133;49.626;9.680;2022-11-20T08:28:14;3.70;98.00
298;DHT22;133;49.626;9.680;2022-11-20T08:30:40;3.80;98.20
298;DHT22;133;49.626;9.680;2022-11-20T08:33:07;3.80;98.40
298;DHT22;133;49.626;9.680;2022-11-20T08:35:37;3.80;98.50
298;DHT22;133;49.626;9.680;2022-11-20T08:38:05;3.90;98.40
298;DHT22;133;49.626;9.680;2022-11-20T08:40:31;4.00;98.50
298;DHT22;133;49.626;9.680;2022-11-20T08:42:57;4.10;98.20
298;DHT22;133;49.626;9.680;2022-11-20T08:45:22;4.20;97.70
298;DHT22;133;49.626;9.680;2022-11-20T08:47:48;4.20;97.60
298;DHT22;133;49.626;9.680;2022-11-20T08:50:15;4.20;97.20
298;DHT22;133;49.626;9.680;2022-11-20T08:52:42;4.20;97.00
298;DHT22;133;49.626;9.680;2022-11-20T08:55:08;4.30;97.10
298;DHT22;133;49.626;9.680;2022-11-20T08:57:37;4.30;96.70
298;DHT22;133;49.626;9.680;2022-11-20T09:00:06;4.40;97.00
298;DHT22;133;49.626;9.680;2022-11-20T09:02:32;4.40;97.00
298;DHT22;133;49.626;9.680;2022-11-20T09:04:58;4.50;96.80
298;DHT22;133;49.626;9.680;2022-11-20T09:07:23;4.60;96.40
298;DHT22;133;49.626;9.680;2022-11-20T09:09:49;4.50;95.80
298;DHT22;133;49.626;9.680;2022-11-20T09:12:14;4.50;95.40
298;DHT22;133;49.626;9.680;2022-11-20T09:14:40;4.50;95.30
298;DHT22;133;49.626;9.680;2022-11-20T09:17:06;4.40;95.50
298;DHT22;133;49.626;9.680;2022-11-20T09:19:33;4.40;95.20
298;DHT22;133;49.626;9.680;2022-11-20T09:21:58;4.30;95.40
298;DHT22;133;49.626;9.680;2022-11-20T09:24:25;4.20;95.70
298;DHT22;133;49.626;9.680;2022-11-20T09:26:51;4.10;95.90
298;DHT22;133;49.626;9.680;2022-11-20T09:29:17;4.10;96.30
298;DHT22;133;49.626;9.680;2022-11-20T09:31:42;4.20;96.30
298;DHT22;133;49.626;9.680;2022-11-20T09:34:08;4.10;96.60
298;DHT22;133;49.626;9.680;2022-11-20T09:36:33;4.10;97.30
298;DHT22;133;49.626;9.680;2022-11-20T09:38:59;4.10;97.10
298;DHT22;133;49.626;9.680;2022-11-20T09:41:50;4.10;96.80
298;DHT22;133;49.626;9.680;2022-11-20T09:44:49;3.90;97.00
298;DHT22;133;49.626;9.680;2022-11-20T09:47:58;3.80;97.70
298;DHT22;133;49.626;9.680;2022-11-20T09:53:30;3.90;98.00
298;DHT22;133;49.626;9.680;2022-11-20T09:56:01;3.90;98.40
298;DHT22;133;49.626;9.680;2022-11-20T09:58:40;4.00;98.60
298;DHT22;133;49.626;9.680;2022-11-20T10:01:13;4.10;98.40
298;DHT22;133;49.626;9.680;2022-11-20T10:04:00;4.20;98.10
298;DHT22;133;49.626;9.680;2022-11-20T10:06:39;4.40;97.50
298;DHT22;133;49.626;9.680;2022-11-20T10:11:45;4.30;97.50
298;DHT22;133;49.626;9.680;2022-11-20T10:14:25;4.40;97.90
298;DHT22;133;49.626;9.680;2022-11-20T10:19:53;4.80;97.80
298;DHT22;133;49.626;9.680;2022-11-20T10:22:49;4.90;97.50
298;DHT22;133;49.626;9.680;2022-11-20T10:25:20;5.00;96.60
298;DHT22;133;49.626;9.680;2022-11-20T10:30:44;5.30;97.20
298;DHT22;133;49.626;9.680;2022-11-20T10:33:22;5.50;96.40
298;DHT22;133;49.626;9.680;2022-11-20T10:36:00;5.50;95.00
298;DHT22;133;49.626;9.680;2022-11-20T10:38:43;5.40;93.60
298;DHT22;133;49.626;9.680;2022-11-20T10:41:26;5.20;93.50
298;DHT22;133;49.626;9.680;2022-11-20T10:44:11;5.00;95.40
298;DHT22;133;49.626;9.680;2022-11-20T10:46:43;5.20;95.90
298;DHT22;133;49.626;9.680;2022-11-20T10:49:18;5.30;95.70
298;DHT22;133;49.626;9.680;2022-11-20T10:51:57;5.40;95.60
298;DHT22;133;49.626;9.680;2022-11-20T10:57:51;5.70;94.90
298;DHT22;133;49.626;9.680;2022-11-20T11:00:17;5.70;94.20
298;DHT22;133;49.626;9.680;2022-11-20T11:02:47;5.70;94.10
298;DHT22;133;49.626;9.680;2022-11-20T11:07:54;5.70;95.10
298;DHT22;133;49.626;9.680;2022-11-20T11:10:29;5.80;94.90
298;DHT22;133;49.626;9.680;2022-11-20T11:12:57;5.80;94.80
298;DHT22;133;49.626;9.680;2022-11-20T11:15:38;5.90;94.80
298;DHT22;133;49.626;9.680;2022-11-20T11:18:04;6.00;94.80
298;DHT22;133;49.626;9.680;2022-11-20T11:20:30;6.10;94.90
298;DHT22;133;49.626;9.680;2022-11-20T11:22:58;6.10;94.90
298;DHT22;133;49.626;9.680;2022-11-20T11:25:31;6.20;94.80
298;DHT22;133;49.626;9.680;2022-11-20T11:28:21;6.20;94.60
298;DHT22;133;49.626;9.680;2022-11-20T11:30:47;6.20;94.20
298;DHT22;133;49.626;9.680;2022-11-20T11:33:24;6.30;94.10
298;DHT22;133;49.626;9.680;2022-11-20T11:35:59;6.30;94.30
298;DHT22;133;49.626;9.680;2022-11-20T11:38:34;6.30;94.30
298;DHT22;133;49.626;9.680;2022-11-20T11:41:02;6.40;94.50
298;DHT22;133;49.626;9.680;2022-11-20T11:43:30;6.40;94.80
298;DHT22;133;49.626;9.680;2022-11-20T11:46:34;6.40;95.00
298;DHT22;133;49.626;9.680;2022-11-20T11:51:51;6.50;95.00
298;DHT22;133;49.626;9.680;2022-11-20T11:54:28;6.50;94.90
298;DHT22;133;49.626;9.680;2022-11-20T11:56:56;6.50;94.90
298;DHT22;133;49.626;9.680;2022-11-20T11:59:34;6.50;95.00
298;DHT22;133;49.626;9.680;2022-11-20T12:02:33;6.50;94.70
298;DHT22;133;49.626;9.680;2022-11-20T12:08:19;6.50;94.60
298;DHT22;133;49.626;9.680;2022-11-20T12:13:55;6.40;94.80
298;DHT22;133;49.626;9.680;2022-11-20T12:16:23;6.30;95.30
298;DHT22;133;49.626;9.680;2022-11-20T12:18:51;6.30;95.70
298;DHT22;133;49.626;9.680;2022-11-20T12:21:34;6.40;95.60
298;DHT22;133;49.626;9.680;2022-11-20T12:27:09;6.30;95.60
298;DHT22;133;49.626;9.680;2022-11-20T12:43:23;6.60;95.80
298;DHT22;133;49.626;9.680;2022-11-20T12:57:18;6.50;95.60
298;DHT22;133;49.626;9.680;2022-11-20T13:05:54;6.70;96.20
298;DHT22;133;49.626;9.680;2022-11-20T13:08:24;6.80;96.10
298;DHT22;133;49.626;9.680;2022-11-20T13:13:46;6.90;95.80
298;DHT22;133;49.626;9.680;2022-11-20T13:16:19;6.90;95.70
298;DHT22;133;49.626;9.680;2022-11-20T13:18:47;6.90;96.20
298;DHT22;133;49.626;9.680;2022-11-20T13:21:35;6.90;96.30
298;DHT22;133;49.626;9.680;2022-11-20T13:24:20;6.90;96.10
298;DHT22;133;49.626;9.680;2022-11-20T13:29:47;7.00;95.80
298;DHT22;133;49.626;9.680;2022-11-20T13:32:23;6.90;96.60
298;DHT22;133;49.626;9.680;2022-11-20T13:35:03;6.90;96.40
298;DHT22;133;49.626;9.680;2022-11-20T13:37:33;6.80;96.40
298;DHT22;133;49.626;9.680;2022-11-20T13:42:37;6.90;96.50
298;DHT22;133;49.626;9.680;2022-11-20T13:45:10;6.90;96.60
298;DHT22;133;49.626;9.680;2022-11-20T13:47:50;6.90;96.50
298;DHT22;133;49.626;9.680;2022-11-20T13:50:17;7.00;96.60
298;DHT22;133;49.626;9.680;2022-11-20T13:59:11;6.90;96.80
298;DHT22;133;49.626;9.680;2022-11-20T14:01:39;6.80;96.90
298;DHT22;133;49.626;9.680;2022-11-20T14:04:09;6.80;96.60
298;DHT22;133;49.626;9.680;2022-11-20T14:06:42;6.80;96.70
298;DHT22;133;49.626;9.680;2022-11-20T14:09:13;6.70;96.90
298;DHT22;133;49.626;9.680;2022-11-20T14:11:49;6.70;97.10
298;DHT22;133;49.626;9.680;2022-11-20T14:14:21;6.70;97.10
298;DHT22;133;49.626;9.680;2022-11-20T14:16:47;6.70;97.30
298;DHT22;133;49.626;9.680;2022-11-20T14:21:46;6.70;97.50
298;DHT22;133;49.626;9.680;2022-11-20T14:24:12;6.70;97.40
298;DHT22;133;49.626;9.680;2022-11-20T14:26:45;6.70;97.50
298;DHT22;133;49.626;9.680;2022-11-20T14:29:26;6.70;97.70
298;DHT22;133;49.626;9.680;2022-11-20T14:31:54;6.70;97.70
298;DHT22;133;49.626;9.680;2022-11-20T14:34:26;6.60;97.70
298;DHT22;133;49.626;9.680;2022-11-20T14:36:57;6.60;98.40
298;DHT22;133;49.626;9.680;2022-11-20T14:39:31;6.60;98.50
298;DHT22;133;49.626;9.680;2022-11-20T14:41:58;6.60;98.50
298;DHT22;133;49.626;9.680;2022-11-20T14:44:36;6.50;97.90
298;DHT22;133;49.626;9.680;2022-11-20T14:47:03;6.50;98.40
298;DHT22;133;49.626;9.680;2022-11-20T14:49:30;6.50;98.50
298;DHT22;133;49.626;9.680;2022-11-20T14:52:01;6.40;98.50
298;DHT22;133;49.626;9.680;2022-11-20T14:54:27;6.30;98.70
298;DHT22;133;49.626;9.680;2022-11-20T14:56:59;6.20;98.70
298;DHT22;133;49.626;9.680;2022-11-20T14:59:27;6.20;98.70
298;DHT22;133;49.626;9.680;2022-11-20T15:01:59;6.20;98.70
298;DHT22;133;49.626;9.680;2022-11-20T15:04:25;6.20;98.60
298;DHT22;133;49.626;9.680;2022-11-20T15:06:56;6.20;98.70
298;DHT22;133;49.626;9.680;2022-11-20T15:09:22;6.20;98.70
298;DHT22;133;49.626;9.680;2022-11-20T15:12:15;6.30;98.50
298;DHT22;133;49.626;9.680;2022-11-20T15:14:42;6.40;98.10
298;DHT22;133;49.626;9.680;2022-11-20T15:17:10;6.40;98.10
298;DHT22;133;49.626;9.680;2022-11-20T15:19:36;6.50;98.10
298;DHT22;133;49.626;9.680;2022-11-20T15:22:02;6.50;98.10
298;DHT22;133;49.626;9.680;2022-11-20T15:24:27;6.60;98.10
298;DHT22;133;49.626;9.680;2022-11-20T15:26:53;6.60;98.10
298;DHT22;133;49.626;9.680;2022-11-20T15:29:20;6.60;98.20
298;DHT22;133;49.626;9.680;2022-11-20T15:31:47;6.70;98.20
298;DHT22;133;49.626;9.680;2022-11-20T15:34:14;6.70;97.30
298;DHT22;133;49.626;9.680;2022-11-20T15:36:41;6.80;96.90
298;DHT22;133;49.626;9.680;2022-11-20T15:39:08;6.80;96.60
298;DHT22;133;49.626;9.680;2022-11-20T15:41:35;6.90;96.20
298;DHT22;133;49.626;9.680;2022-11-20T15:44:02;6.90;96.10
298;DHT22;133;49.626;9.680;2022-11-20T15:46:30;6.80;96.30
298;DHT22;133;49.626;9.680;2022-11-20T15:49:00;6.80;96.50
298;DHT22;133;49.626;9.680;2022-11-20T15:51:37;6.70;96.80
298;DHT22;133;49.626;9.680;2022-11-20T15:54:18;6.70;96.90
298;DHT22;133;49.626;9.680;2022-11-20T15:56:49;6.60;97.10
298;DHT22;133;49.626;9.680;2022-11-20T15:59:17;6.60;97.30
298;DHT22;133;49.626;9.680;2022-11-20T16:01:43;6.60;97.40
298;DHT22;133;49.626;9.680;2022-11-20T16:04:14;6.50;97.70
298;DHT22;133;49.626;9.680;2022-11-20T16:06:40;6.50;97.80
298;DHT22;133;49.626;9.680;2022-11-20T16:09:06;6.50;98.00
298;DHT22;133;49.626;9.680;2022-11-20T16:11:32;6.50;98.10
298;DHT22;133;49.626;9.680;2022-11-20T16:13:58;6.50;98.20
298;DHT22;133;49.626;9.680;2022-11-20T16:16:42;6.50;98.30
298;DHT22;133;49.626;9.680;2022-11-20T16:19:13;6.50;98.30
298;DHT22;133;49.626;9.680;2022-11-20T16:21:39;6.50;98.40
298;DHT22;133;49.626;9.680;2022-11-20T16:24:08;6.50;98.40
298;DHT22;133;49.626;9.680;2022-11-20T16:26:36;6.50;98.50
298;DHT22;133;49.626;9.680;2022-11-20T16:29:03;6.40;98.50
298;DHT22;133;49.626;9.680;2022-11-20T16:31:29;6.40;98.60
298;DHT22;133;49.626;9.680;2022-11-20T16:33:57;6.40;98.70
298;DHT22;133;49.626;9.680;2022-11-20T16:36:24;6.30;98.70
298;DHT22;133;49.626;9.680;2022-11-20T16:38:55;6.40;98.70
298;DHT22;133;49.626;9.680;2022-11-20T16:41:22;6.40;98.70
298;DHT22;133;49.626;9.680;2022-11-20T16:43:50;6.40;98.70
298;DHT22;133;49.626;9.680;2022-11-20T16:46:17;6.50;98.70
298;DHT22;133;49.626;9.680;2022-11-20T16:48:44;6.50;98.70
298;DHT22;133;49.626;9.680;2022-11-20T16:51:11;6.50;98.70
298;DHT22;133;49.626;9.680;2022-11-20T16:53:38;6.50;98.20
298;DHT22;133;49.626;9.680;2022-11-20T16:56:15;6.40;98.00
298;DHT22;133;49.626;9.680;2022-11-20T16:58:45;6.50;97.90
298;DHT22;133;49.626;9.680;2022-11-20T17:01:13;6.50;97.90
298;DHT22;133;49.626;9.680;2022-11-20T17:03:40;6.40;97.80
298;DHT22;133;49.626;9.680;2022-11-20T17:06:14;6.40;97.80
298;DHT22;133;49.626;9.680;2022-11-20T17:08:40;6.30;97.50
298;DHT22;133;49.626;9.680;2022-11-20T17:11:07;6.30;97.10
298;DHT22;133;49.626;9.680;2022-11-20T17:13:35;6.30;96.90
298;DHT22;133;49.626;9.680;2022-11-20T17:16:04;6.30;96.80
298;DHT22;133;49.626;9.680;2022-11-20T17:18:31;6.30;96.80
298;DHT22;133;49.626;9.680;2022-11-20T17:20:57;6.30;96.60
298;DHT22;133;49.626;9.680;2022-11-20T17:23:27;6.30;96.50
298;DHT22;133;49.626;9.680;2022-11-20T17:26:00;6.30;96.40
298;DHT22;133;49.626;9.680;2022-11-20T17:28:26;6.30;96.70
298;DHT22;133;49.626;9.680;2022-11-20T17:30:51;6.30;96.30
298;DHT22;133;49.626;9.680;2022-11-20T17:33:17;6.30;96.30
298;DHT22;133;49.626;9.680;2022-11-20T17:35:43;6.30;95.70
298;DHT22;133;49.626;9.680;2022-11-20T17:38:08;6.20;95.90
298;DHT22;133;49.626;9.680;2022-11-20T17:40:34;6.30;95.70
298;DHT22;133;49.626;9.680;2022-11-20T17:42:59;6.20;95.60
298;DHT22;133;49.626;9.680;2022-11-20T17:45:25;6.20;95.70
298;DHT22;133;49.626;9.680;2022-11-20T17:47:51;6.30;95.50
298;DHT22;133;49.626;9.680;2022-11-20T17:50:16;6.30;95.50
298;DHT22;133;49.626;9.680;2022-11-20T17:52:42;6.30;95.40
298;DHT22;133;49.626;9.680;2022-11-20T17:55:08;6.30;94.90
298;DHT22;133;49.626;9.680;2022-11-20T17:57:33;6.30;94.90
298;DHT22;133;49.626;9.680;2022-11-20T18:00:18;6.40;94.70
298;DHT22;133;49.626;9.680;2022-11-20T18:02:44;6.40;94.70
298;DHT22;133;49.626;9.680;2022-11-20T18:05:10;6.30;94.70
298;DHT22;133;49.626;9.680;2022-11-20T18:07:36;6.30;94.50
298;DHT22;133;49.626;9.680;2022-11-20T18:10:03;6.30;94.60
298;DHT22;133;49.626;9.680;2022-11-20T18:12:29;6.30;94.30
298;DHT22;133;49.626;9.680;2022-11-20T18:14:55;6.40;94.00
298;DHT22;133;49.626;9.680;2022-11-20T18:17:21;6.40;94.00
298;DHT22;133;49.626;9.680;2022-11-20T18:19:47;6.40;94.20
298;DHT22;133;49.626;9.680;2022-11-20T18:22:14;6.50;93.90
298;DHT22;133;49.626;9.680;2022-11-20T18:24:40;6.40;94.20
298;DHT22;133;49.626;9.680;2022-11-20T18:27:11;6.40;93.80
298;DHT22;133;49.626;9.680;2022-11-20T18:29:37;6.40;93.80